Time;durP1;ratioP1;P1;durP2;ratioP2;P2;SDS_P1;SDS_P2;PMS_P1;PMS_P2;Temp;Humidity;BMP_temperature;BMP_pressure;BME280_temperature;BME280_humidity;BME280_pressure;Samples;Min_cycle;Max_cycle;Signal;HPM_P1;HPM_P2
2023/03/25 00:01:18;;;;;;;3.08;0.73;;;24.80;99.90;;;;;;5007675;28;20204;-77
2023/03/25 00:03:52;;;;;;;1.90;0.60;;;24.80;99.90;;;;;;5022412;28;20221;-78
2023/03/25 00:06:24;;;;;;;1.00;0.55;;;24.80;99.90;;;;;;5014709;28;20300;-78
2023/03/25 00:08:56;;;;;;;6.03;0.80;;;24.80;99.90;;;;;;5009552;28;20232;-79
2023/03/25 00:11:30;;;;;;;1.45;0.70;;;24.80;99.90;;;;;;5006709;28;20197;-78
2023/03/25 00:14:01;;;;;;;1.52;0.55;;;24.80;99.90;;;;;;5005836;28;20197;-78
2023/03/25 00:16:32;;;;;;;1.33;0.57;;;24.80;99.90;;;;;;5007240;28;20202;-79
2023/03/25 00:19:03;;;;;;;2.85;0.73;;;24.90;99.90;;;;;;5005569;28;20231;-79
2023/03/25 00:21:36;;;;;;;1.75;0.77;;;24.90;99.90;;;;;;5005806;28;20223;-79
2023/03/25 00:24:07;;;;;;;2.25;0.65;;;24.80;99.90;;;;;;5005777;28;20214;-78
2023/03/25 00:26:41;;;;;;;2.75;0.70;;;24.90;99.90;;;;;;5006355;28;20209;-78
2023/03/25 00:29:12;;;;;;;3.20;0.60;;;24.90;99.90;;;;;;5005787;28;20235;-78
2023/03/25 00:31:44;;;;;;;1.20;0.50;;;24.80;99.90;;;;;;5012141;28;20197;-78
2023/03/25 00:34:15;;;;;;;2.13;0.60;;;24.90;99.90;;;;;;5008343;28;20752;-79
2023/03/25 00:36:48;;;;;;;1.95;0.60;;;24.80;99.90;;;;;;5010705;28;21221;-78
2023/03/25 00:39:19;;;;;;;2.08;0.70;;;24.90;99.90;;;;;;5008718;28;20237;-78
2023/03/25 00:41:50;;;;;;;1.30;0.52;;;24.90;99.90;;;;;;5010528;28;20198;-79
2023/03/25 00:44:21;;;;;;;1.77;0.80;;;24.90;99.90;;;;;;5017938;28;20185;-78
2023/03/25 00:46:52;;;;;;;2.63;0.90;;;24.90;99.90;;;;;;5011318;28;20197;-78
2023/03/25 00:49:24;;;;;;;3.45;0.80;;;25.00;99.90;;;;;;5002560;28;20252;-79
2023/03/25 00:51:57;;;;;;;2.55;0.70;;;25.00;99.90;;;;;;5006385;28;20260;-78
2023/03/25 00:54:28;;;;;;;1.48;0.77;;;25.00;99.90;;;;;;5006187;28;20807;-79
2023/03/25 00:56:59;;;;;;;2.00;0.75;;;24.90;99.90;;;;;;5005887;28;20205;-77
2023/03/25 00:59:30;;;;;;;3.95;0.90;;;25.00;99.90;;;;;;5015707;28;20225;-78
2023/03/25 01:02:02;;;;;;;1.98;0.70;;;24.90;99.90;;;;;;4999442;28;20235;-79
2023/03/25 01:04:33;;;;;;;2.33;0.70;;;24.90;99.90;;;;;;5009099;28;20201;-80
2023/03/25 01:07:06;;;;;;;1.73;0.60;;;25.00;99.90;;;;;;5002918;28;21504;-78
2023/03/25 01:09:37;;;;;;;3.70;0.80;;;25.00;99.90;;;;;;5005470;28;20209;-78
2023/03/25 01:12:09;;;;;;;4.25;0.80;;;25.10;99.90;;;;;;5001927;28;20216;-78
2023/03/25 01:14:40;;;;;;;3.15;0.80;;;25.10;99.90;;;;;;5002000;28;20206;-78
2023/03/25 01:17:12;;;;;;;1.52;0.63;;;25.10;99.90;;;;;;5000782;28;20200;-79
2023/03/25 01:19:43;;;;;;;1.52;0.65;;;25.20;99.90;;;;;;5003601;28;20759;-79
2023/03/25 01:22:16;;;;;;;1.83;0.60;;;25.20;99.90;;;;;;5024821;28;20240;-77
2023/03/25 01:24:48;;;;;;;1.67;0.57;;;25.20;99.90;;;;;;5026714;28;20193;-78
2023/03/25 01:27:19;;;;;;;2.70;0.70;;;25.20;99.90;;;;;;5019058;28;20198;-77
2023/03/25 01:29:50;;;;;;;4.80;0.90;;;25.20;99.90;;;;;;5035601;28;20215;-77
2023/03/25 01:32:21;;;;;;;1.52;0.60;;;25.30;99.90;;;;;;5049211;28;20200;-77
2023/03/25 01:34:52;;;;;;;2.75;0.60;;;25.30;99.90;;;;;;5050363;28;20196;-77
2023/03/25 01:37:26;;;;;;;3.40;1.00;;;25.20;99.90;;;;;;5017638;28;20222;-77
2023/03/25 01:39:57;;;;;;;3.47;0.73;;;25.30;99.90;;;;;;5011279;28;20226;-77
2023/03/25 01:42:28;;;;;;;2.72;0.75;;;25.30;99.90;;;;;;5015029;28;20211;-77
2023/03/25 01:45:25;;;;;;;3.58;0.77;;;25.40;99.90;;;;;;5023948;28;20197;-77
2023/03/25 01:48:05;;;;;;;3.53;0.90;;;25.40;99.90;;;;;;5010924;28;20276;-76
2023/03/25 01:50:38;;;;;;;3.08;0.77;;;25.40;99.90;;;;;;5011799;28;20753;-76
2023/03/25 01:53:13;;;;;;;2.22;0.90;;;25.40;99.90;;;;;;5030652;28;20684;-77
2023/03/25 01:55:46;;;;;;;5.18;0.90;;;25.40;99.90;;;;;;5030385;28;20207;-77
2023/03/25 01:58:19;;;;;;;4.43;0.90;;;25.50;99.90;;;;;;5029832;28;20221;-77
2023/03/25 02:00:53;;;;;;;2.28;0.75;;;25.50;99.90;;;;;;5026768;28;20689;-76
2023/03/25 02:03:26;;;;;;;3.45;0.75;;;25.50;99.90;;;;;;5010783;28;20620;-76
2023/03/25 02:06:02;;;;;;;2.38;0.60;;;25.50;99.90;;;;;;5014277;28;20211;-76
2023/03/25 02:08:38;;;;;;;1.88;0.90;;;25.50;99.90;;;;;;5030531;28;20200;-76
2023/03/25 02:11:10;;;;;;;1.17;0.70;;;25.50;99.90;;;;;;5030486;28;20196;-76
2023/03/25 02:13:43;;;;;;;2.88;0.80;;;25.60;99.90;;;;;;5030423;28;20197;-77
2023/03/25 02:16:26;;;;;;;2.72;0.77;;;25.70;99.90;;;;;;5030819;28;20197;-76
2023/03/25 02:19:13;;;;;;;2.35;0.98;;;25.80;99.90;;;;;;5030036;28;20221;-76
2023/03/25 02:22:10;;;;;;;2.75;0.80;;;25.80;99.90;;;;;;5013495;28;20194;-76
2023/03/25 02:25:25;;;;;;;4.10;0.88;;;25.80;99.90;;;;;;5010345;28;20285;-77
2023/03/25 02:28:05;;;;;;;1.45;0.68;;;25.80;99.90;;;;;;5010591;28;20206;-77
2023/03/25 02:31:09;;;;;;;3.17;0.95;;;25.90;99.90;;;;;;5010684;28;20198;-77
2023/03/25 02:34:12;;;;;;;2.67;0.70;;;26.10;99.90;;;;;;4977762;28;20216;-77
2023/03/25 02:37:35;;;;;;;2.95;0.90;;;26.20;99.90;;;;;;5029285;28;20219;-77
2023/03/25 02:40:11;;;;;;;1.77;0.77;;;26.40;99.90;;;;;;4917731;28;20225;-77
2023/03/25 02:42:48;;;;;;;1.52;0.77;;;26.40;99.90;;;;;;5029454;28;20734;-77
2023/03/25 02:45:24;;;;;;;3.90;0.70;;;26.40;99.90;;;;;;5029998;28;20204;-77
2023/03/25 02:48:00;;;;;;;1.40;0.65;;;26.30;99.90;;;;;;5030233;28;20201;-77
2023/03/25 02:50:36;;;;;;;4.00;1.05;;;26.20;99.90;;;;;;5029219;28;20634;-77
2023/03/25 02:53:11;;;;;;;4.13;0.73;;;26.10;99.90;;;;;;5011712;28;20205;-76
2023/03/25 02:55:46;;;;;;;1.95;0.75;;;26.10;99.90;;;;;;5010449;28;20727;-77
2023/03/25 02:58:20;;;;;;;2.00;0.60;;;26.10;99.90;;;;;;5019224;28;20189;-75
2023/03/25 03:00:57;;;;;;;1.92;0.80;;;26.00;99.90;;;;;;5031275;28;20197;-76
2023/03/25 03:03:29;;;;;;;3.33;0.82;;;26.00;99.90;;;;;;5032773;28;20239;-78
2023/03/25 03:06:02;;;;;;;4.53;0.75;;;26.00;99.90;;;;;;5030446;28;20649;-76
2023/03/25 03:08:51;;;;;;;4.90;0.75;;;26.10;99.90;;;;;;5044304;28;20215;-77
2023/03/25 03:11:31;;;;;;;3.15;0.90;;;26.30;99.90;;;;;;5054969;28;20200;-77
2023/03/25 03:14:32;;;;;;;1.05;0.57;;;26.40;99.90;;;;;;5036485;28;20613;-76
2023/03/25 03:17:09;;;;;;;3.60;0.95;;;26.20;99.90;;;;;;5035322;28;20575;-77
2023/03/25 03:19:45;;;;;;;2.72;0.90;;;26.20;99.90;;;;;;5033480;28;20706;-76
2023/03/25 03:22:35;;;;;;;3.47;1.05;;;26.20;99.90;;;;;;5022913;28;20285;-77
2023/03/25 03:25:11;;;;;;;4.65;0.80;;;26.10;99.90;;;;;;5022815;28;20197;-77
2023/03/25 03:27:49;;;;;;;3.42;0.60;;;26.00;99.90;;;;;;5016345;28;20259;-77
2023/03/25 03:30:28;;;;;;;1.38;0.70;;;25.90;99.90;;;;;;5037426;28;20197;-77
2023/03/25 03:33:08;;;;;;;2.53;0.70;;;25.90;99.90;;;;;;5034701;28;20230;-77
2023/03/25 03:35:48;;;;;;;1.65;0.70;;;25.80;99.90;;;;;;5033588;28;20189;-77
2023/03/25 03:38:22;;;;;;;1.55;0.57;;;25.70;99.90;;;;;;5028163;28;20241;-78
2023/03/25 03:40:58;;;;;;;2.10;0.70;;;25.60;99.90;;;;;;5016681;28;20201;-78
2023/03/25 03:43:36;;;;;;;2.55;0.77;;;25.60;99.90;;;;;;5036410;28;20201;-78
2023/03/25 03:46:14;;;;;;;1.50;0.77;;;25.60;99.90;;;;;;5034619;28;20201;-75
2023/03/25 03:48:51;;;;;;;1.50;0.70;;;25.60;99.90;;;;;;5030197;28;20290;-78
2023/03/25 03:51:25;;;;;;;4.10;0.82;;;25.50;99.90;;;;;;5030037;28;20284;-81
2023/03/25 03:53:59;;;;;;;2.42;0.70;;;25.50;99.90;;;;;;5026074;28;20215;-79
2023/03/25 03:56:35;;;;;;;2.88;0.80;;;25.50;99.90;;;;;;5024573;28;20202;-79
2023/03/25 03:59:15;;;;;;;4.38;0.93;;;25.60;99.90;;;;;;5031363;28;20233;-78
2023/03/25 04:01:48;;;;;;;2.45;0.80;;;25.60;99.90;;;;;;5032864;28;20201;-78
2023/03/25 04:04:25;;;;;;;2.35;0.57;;;25.60;99.90;;;;;;5032447;28;20197;-77
2023/03/25 04:07:03;;;;;;;1.42;0.50;;;25.60;99.90;;;;;;5029324;28;20994;-78
2023/03/25 04:09:42;;;;;;;3.25;0.60;;;25.60;99.90;;;;;;5023824;28;20686;-77
2023/03/25 04:12:18;;;;;;;3.15;0.80;;;25.50;99.90;;;;;;5025864;28;20224;-77
2023/03/25 04:14:51;;;;;;;4.07;0.60;;;25.50;99.90;;;;;;5019728;28;20193;-77
2023/03/25 04:17:22;;;;;;;4.38;0.73;;;25.40;99.90;;;;;;5032012;28;20202;-78
2023/03/25 04:19:54;;;;;;;1.48;0.68;;;25.30;99.90;;;;;;5030508;28;20232;-77
2023/03/25 04:22:28;;;;;;;2.88;0.90;;;25.30;99.90;;;;;;5030439;28;20201;-78
2023/03/25 04:24:59;;;;;;;1.88;0.45;;;25.30;99.90;;;;;;5030936;28;20200;-77
2023/03/25 04:27:31;;;;;;;2.42;0.70;;;25.20;99.90;;;;;;5031377;28;20189;-78
2023/03/25 04:30:04;;;;;;;1.67;0.55;;;25.20;99.90;;;;;;5027811;28;20208;-78
2023/03/25 04:32:35;;;;;;;3.80;0.88;;;25.20;99.90;;;;;;5029732;28;20197;-78
2023/03/25 04:35:08;;;;;;;1.73;0.52;;;25.20;99.90;;;;;;5025820;28;20320;-78
2023/03/25 04:37:40;;;;;;;2.72;0.68;;;25.20;99.90;;;;;;5024355;28;20217;-77
2023/03/25 04:40:15;;;;;;;2.33;0.70;;;25.20;99.90;;;;;;5023100;28;20696;-77
2023/03/25 04:42:46;;;;;;;1.45;0.60;;;25.20;99.90;;;;;;5020376;28;20679;-78
2023/03/25 04:45:20;;;;;;;3.95;0.80;;;25.20;99.90;;;;;;5023091;28;20194;-79
2023/03/25 04:47:53;;;;;;;2.15;0.82;;;25.10;99.90;;;;;;5020404;28;20197;-79
2023/03/25 04:50:27;;;;;;;1.65;0.70;;;25.20;99.90;;;;;;5028455;28;20194;-79
2023/03/25 04:52:59;;;;;;;1.88;0.63;;;25.10;99.90;;;;;;5026163;28;20212;-79
2023/03/25 04:55:30;;;;;;;1.48;0.65;;;25.10;99.90;;;;;;5023605;28;20198;-78
2023/03/25 04:58:01;;;;;;;2.70;0.70;;;25.10;99.90;;;;;;5029187;28;20201;-77
2023/03/25 05:00:35;;;;;;;3.17;0.77;;;25.20;99.90;;;;;;5023216;28;20221;-78
2023/03/25 05:03:09;;;;;;;2.13;0.70;;;25.20;99.90;;;;;;5020182;28;20538;-78
2023/03/25 05:05:40;;;;;;;3.45;0.70;;;25.10;99.90;;;;;;5029771;28;20199;-78
2023/03/25 05:08:13;;;;;;;2.03;0.77;;;25.10;99.90;;;;;;5030832;28;20229;-78
2023/03/25 05:10:44;;;;;;;2.20;0.57;;;24.90;99.90;;;;;;5025113;28;20201;-77
2023/03/25 05:13:15;;;;;;;2.95;0.85;;;24.90;99.90;;;;;;5022431;28;20201;-78
2023/03/25 05:15:48;;;;;;;2.38;0.75;;;24.80;99.90;;;;;;5031373;28;20220;-78
2023/03/25 05:18:20;;;;;;;2.63;0.98;;;24.70;99.90;;;;;;5031261;28;20197;-78
2023/03/25 05:20:52;;;;;;;3.58;0.93;;;24.60;99.90;;;;;;5029940;28;20283;-78
2023/03/25 05:23:23;;;;;;;4.40;0.70;;;24.60;99.90;;;;;;5017184;28;20722;-78
2023/03/25 05:25:55;;;;;;;4.32;0.70;;;24.50;99.90;;;;;;5024916;28;20559;-78
2023/03/25 05:28:26;;;;;;;3.20;0.88;;;24.50;99.90;;;;;;5030818;28;20236;-78
2023/03/25 05:30:59;;;;;;;3.65;0.90;;;24.50;99.90;;;;;;5030955;28;20214;-79
2023/03/25 05:33:31;;;;;;;4.43;0.90;;;24.40;99.90;;;;;;5030939;28;20204;-78
2023/03/25 05:36:02;;;;;;;3.75;1.05;;;24.40;99.90;;;;;;5030060;28;20202;-79
2023/03/25 05:38:33;;;;;;;4.40;0.80;;;24.40;99.90;;;;;;5030996;28;20201;-78
2023/03/25 05:41:09;;;;;;;2.70;0.90;;;24.40;99.90;;;;;;5020109;28;20233;-79
2023/03/25 05:43:45;;;;;;;2.60;0.70;;;24.40;99.90;;;;;;5031426;28;20197;-78
2023/03/25 05:46:19;;;;;;;2.45;0.80;;;24.40;99.90;;;;;;5030197;28;20227;-74
2023/03/25 05:48:50;;;;;;;5.07;1.10;;;24.30;99.90;;;;;;5014226;28;20200;-78
2023/03/25 05:51:22;;;;;;;4.97;1.30;;;24.30;99.90;;;;;;5031157;28;20193;-79
2023/03/25 05:54:07;;;;;;;3.58;1.20;;;24.30;99.90;;;;;;5031610;28;20205;-79
2023/03/25 05:56:42;;;;;;;5.15;1.40;;;24.30;99.90;;;;;;5036107;28;20197;-78
2023/03/25 05:59:15;;;;;;;4.72;0.95;;;24.30;99.90;;;;;;5027537;28;20190;-79
2023/03/25 06:01:48;;;;;;;3.55;1.30;;;24.10;99.90;;;;;;5030108;28;20189;-79
2023/03/25 06:04:20;;;;;;;5.30;1.10;;;24.00;99.90;;;;;;5030982;28;20619;-78
2023/03/25 06:06:51;;;;;;;4.70;1.20;;;23.90;99.90;;;;;;5029670;28;20225;-78
2023/03/25 06:09:22;;;;;;;2.95;1.10;;;23.70;99.90;;;;;;5030410;28;20205;-78
2023/03/25 06:11:53;;;;;;;6.38;1.30;;;23.60;99.90;;;;;;5029550;28;20210;-78
2023/03/25 06:14:28;;;;;;;3.95;1.20;;;23.60;99.90;;;;;;5030635;28;20216;-78
2023/03/25 06:17:01;;;;;;;3.15;1.10;;;23.60;99.90;;;;;;5025146;28;20197;-79
2023/03/25 06:19:37;;;;;;;5.05;1.00;;;23.40;99.90;;;;;;5028005;28;20256;-78
2023/03/25 06:22:09;;;;;;;2.95;1.10;;;23.30;99.90;;;;;;5027106;28;20287;-79
2023/03/25 06:24:41;;;;;;;3.17;1.10;;;23.30;99.90;;;;;;5028331;28;20680;-78
2023/03/25 06:27:16;;;;;;;6.75;1.60;;;23.20;99.90;;;;;;5029675;28;20251;-78
2023/03/25 06:29:48;;;;;;;7.30;1.52;;;23.10;99.90;;;;;;5028325;28;20211;-78
2023/03/25 06:32:21;;;;;;;10.52;1.92;;;23.10;99.90;;;;;;5030024;28;20243;-78
2023/03/25 06:34:52;;;;;;;6.90;1.50;;;23.00;99.90;;;;;;5028999;28;20683;-77
2023/03/25 06:37:24;;;;;;;4.93;1.10;;;22.80;99.90;;;;;;5021587;28;20225;-78
2023/03/25 06:39:58;;;;;;;6.70;1.00;;;22.80;99.90;;;;;;5018813;28;20575;-78
2023/03/25 06:42:35;;;;;;;4.82;1.08;;;22.70;99.90;;;;;;5030461;28;20212;-78
2023/03/25 06:45:19;;;;;;;3.85;1.13;;;22.70;99.90;;;;;;5036681;28;20217;-78
2023/03/25 06:47:58;;;;;;;4.47;0.98;;;22.60;99.90;;;;;;5033981;28;20609;-79
2023/03/25 06:50:32;;;;;;;5.80;1.20;;;22.60;99.90;;;;;;5033997;28;20259;-79
2023/03/25 06:53:06;;;;;;;5.72;1.27;;;22.60;99.90;;;;;;5031246;28;20664;-78
2023/03/25 06:55:37;;;;;;;3.45;1.00;;;22.60;99.90;;;;;;5032698;28;20192;-79
2023/03/25 06:58:08;;;;;;;4.18;1.08;;;22.60;99.90;;;;;;5033474;28;20196;-78
2023/03/25 07:00:40;;;;;;;3.53;1.35;;;22.60;99.90;;;;;;5032690;28;20221;-78
2023/03/25 07:03:13;;;;;;;4.47;1.40;;;22.50;99.90;;;;;;5033125;28;20204;-78
2023/03/25 07:05:46;;;;;;;5.53;1.30;;;22.50;99.90;;;;;;5038006;28;20201;-79
2023/03/25 07:08:17;;;;;;;5.68;1.75;;;22.50;99.90;;;;;;5031077;28;20584;-78
2023/03/25 07:10:49;;;;;;;8.60;2.45;;;22.50;99.90;;;;;;5032527;28;20208;-78
2023/03/25 07:13:20;;;;;;;7.07;2.25;;;22.50;99.90;;;;;;5023585;28;20207;-77
2023/03/25 07:15:51;;;;;;;5.45;2.00;;;22.50;99.90;;;;;;5028647;28;20657;-78
2023/03/25 07:18:27;;;;;;;5.80;2.70;;;22.50;99.90;;;;;;5032973;28;20220;-79
2023/03/25 07:20:58;;;;;;;8.07;2.65;;;22.40;99.90;;;;;;5031791;28;20228;-78
2023/03/25 07:23:29;;;;;;;6.97;2.47;;;22.50;99.90;;;;;;5024915;28;20194;-78
2023/03/25 07:26:01;;;;;;;6.45;1.88;;;22.40;99.90;;;;;;5033918;28;20276;-78
2023/03/25 07:28:32;;;;;;;3.63;1.20;;;22.50;99.90;;;;;;5028219;28;20200;-78
2023/03/25 07:31:03;;;;;;;3.08;1.08;;;22.40;99.90;;;;;;5021183;28;20201;-77
2023/03/25 07:33:36;;;;;;;3.15;0.80;;;22.40;99.90;;;;;;5028994;28;20193;-78
2023/03/25 07:36:10;;;;;;;4.95;1.38;;;22.40;99.90;;;;;;5031906;28;20197;-78
2023/03/25 07:38:41;;;;;;;6.22;1.55;;;22.40;99.90;;;;;;5032062;28;20200;-78
2023/03/25 07:41:16;;;;;;;4.78;1.45;;;22.40;99.90;;;;;;5028898;28;20706;-80
2023/03/25 07:43:47;;;;;;;2.42;1.23;;;22.40;99.90;;;;;;5039428;28;20220;-81
2023/03/25 07:46:18;;;;;;;5.90;1.40;;;22.30;99.90;;;;;;5032784;28;20190;-80
2023/03/25 07:48:51;;;;;;;4.57;1.40;;;22.40;99.90;;;;;;5032951;28;20201;-80
2023/03/25 07:51:22;;;;;;;7.18;1.33;;;22.30;99.90;;;;;;5030615;28;20745;-81
2023/03/25 07:53:53;;;;;;;5.20;1.25;;;22.40;99.90;;;;;;5014005;28;20198;-79
2023/03/25 07:56:24;;;;;;;3.45;1.08;;;22.30;99.90;;;;;;5017173;28;20579;-80
2023/03/25 07:58:56;;;;;;;4.15;0.90;;;22.30;99.90;;;;;;5053544;28;20232;-80
2023/03/25 08:01:27;;;;;;;4.82;1.25;;;22.20;99.90;;;;;;5057167;28;20606;-80
2023/03/25 08:04:00;;;;;;;4.32;0.95;;;22.20;99.90;;;;;;5057402;28;20201;-81
2023/03/25 08:06:31;;;;;;;3.67;1.10;;;22.20;99.90;;;;;;5054355;28;20229;-79
2023/03/25 08:09:03;;;;;;;5.32;0.93;;;22.20;99.90;;;;;;5036242;28;20288;-81
2023/03/25 08:11:34;;;;;;;3.17;0.93;;;22.30;99.90;;;;;;5038556;28;20219;-80
2023/03/25 08:14:05;;;;;;;6.72;1.10;;;22.30;99.90;;;;;;5035901;28;20207;-80
2023/03/25 08:16:36;;;;;;;4.00;1.00;;;22.30;99.90;;;;;;5033728;28;20204;-80
2023/03/25 08:19:09;;;;;;;6.88;1.15;;;22.30;99.90;;;;;;5033439;28;20251;-80
2023/03/25 08:21:41;;;;;;;3.67;1.35;;;22.30;99.90;;;;;;5031861;28;20744;-79
2023/03/25 08:24:12;;;;;;;4.82;1.40;;;22.30;99.90;;;;;;5032945;28;20193;-80
2023/03/25 08:26:43;;;;;;;5.38;1.00;;;22.30;99.90;;;;;;5031346;28;20229;-80
2023/03/25 08:29:16;;;;;;;2.80;1.00;;;22.30;99.90;;;;;;5015220;28;20283;-80
2023/03/25 08:31:51;;;;;;;3.65;1.10;;;22.30;99.90;;;;;;5042156;28;20660;-81
2023/03/25 08:34:24;;;;;;;5.32;1.00;;;22.30;99.90;;;;;;5044193;28;20196;-81
2023/03/25 08:37:01;;;;;;;6.05;0.77;;;22.40;99.90;;;;;;5042564;28;20202;-80
2023/03/25 08:39:38;;;;;;;3.45;1.00;;;22.30;99.90;;;;;;5044034;28;20220;-80
2023/03/25 08:42:10;;;;;;;2.28;0.90;;;22.40;99.90;;;;;;5037526;28;20221;-80
2023/03/25 08:44:41;;;;;;;5.72;1.23;;;22.40;99.90;;;;;;5049003;28;20256;-80
2023/03/25 08:47:13;;;;;;;5.50;1.65;;;22.40;99.90;;;;;;5043060;28;20260;-80
2023/03/25 08:49:46;;;;;;;4.57;1.30;;;22.40;99.90;;;;;;5039101;28;20209;-79
2023/03/25 08:52:18;;;;;;;3.25;0.85;;;22.50;99.90;;;;;;5036038;28;20207;-80
2023/03/25 08:54:52;;;;;;;3.60;0.98;;;22.50;99.90;;;;;;5043654;28;20197;-80
2023/03/25 08:57:24;;;;;;;4.47;1.38;;;22.50;99.90;;;;;;5045913;28;20243;-80
2023/03/25 08:59:55;;;;;;;3.05;0.88;;;22.60;99.90;;;;;;5038107;28;20201;-81
2023/03/25 09:02:26;;;;;;;3.67;1.05;;;22.50;99.90;;;;;;5045057;28;20200;-80
2023/03/25 09:04:59;;;;;;;3.83;1.10;;;22.60;99.90;;;;;;5039234;28;20189;-80
2023/03/25 09:07:45;;;;;;;4.07;1.20;;;22.60;99.90;;;;;;5043907;28;20711;-80
2023/03/25 09:10:18;;;;;;;4.05;1.05;;;22.60;99.90;;;;;;5044111;28;20202;-80
2023/03/25 09:12:50;;;;;;;2.42;0.80;;;22.60;99.90;;;;;;5041917;28;20221;-80
2023/03/25 09:15:30;;;;;;;9.35;4.93;;;22.60;99.90;;;;;;5042078;28;20272;-79
2023/03/25 09:18:03;;;;;;;7.07;2.80;;;22.60;99.90;;;;;;5040068;28;20217;-79
2023/03/25 09:20:36;;;;;;;5.80;1.42;;;22.60;99.90;;;;;;5034626;28;20275;-80
2023/03/25 09:23:08;;;;;;;4.25;1.13;;;22.60;99.90;;;;;;5040949;28;20201;-79
2023/03/25 09:25:40;;;;;;;4.30;1.10;;;22.60;99.90;;;;;;5031891;28;20260;-80
2023/03/25 09:28:11;;;;;;;4.28;0.80;;;22.60;99.90;;;;;;5036224;28;20197;-80
2023/03/25 09:30:43;;;;;;;5.32;1.10;;;22.60;99.90;;;;;;5027028;28;20240;-79
2023/03/25 09:33:18;;;;;;;4.75;0.88;;;22.60;99.90;;;;;;5018152;28;20209;-81
2023/03/25 09:35:53;;;;;;;4.68;0.95;;;22.60;99.90;;;;;;5031551;28;20247;-80
2023/03/25 09:38:24;;;;;;;3.08;0.90;;;22.60;99.90;;;;;;5041057;28;20211;-80
2023/03/25 09:40:55;;;;;;;3.00;0.80;;;22.70;99.90;;;;;;5059377;28;20216;-79
2023/03/25 09:43:52;;;;;;;4.18;0.90;;;22.60;99.90;;;;;;5063955;28;20189;-81
2023/03/25 09:46:24;;;;;;;4.05;0.80;;;22.60;99.90;;;;;;5059879;28;20200;-81
2023/03/25 09:48:57;;;;;;;8.15;2.22;;;22.60;99.90;;;;;;5053824;28;20196;-79
2023/03/25 09:51:32;;;;;;;7.03;1.92;;;22.70;99.90;;;;;;5038070;28;20204;-80
2023/03/25 09:54:08;;;;;;;5.93;1.80;;;22.60;99.90;;;;;;5021133;28;20253;-81
2023/03/25 09:56:42;;;;;;;4.95;2.03;;;22.60;99.90;;;;;;5030354;28;20200;-81
2023/03/25 09:59:17;;;;;;;6.40;1.70;;;22.60;99.90;;;;;;5035270;28;20189;-80
2023/03/25 10:01:57;;;;;;;3.63;1.20;;;22.60;99.90;;;;;;5038232;28;20327;-80
2023/03/25 10:04:56;;;;;;;3.45;0.82;;;22.60;99.90;;;;;;5039514;28;20535;-80
2023/03/25 10:07:47;;;;;;;5.07;1.33;;;22.60;99.90;;;;;;5034782;28;20233;-79
2023/03/25 10:10:26;;;;;;;2.47;0.50;;;22.60;99.90;;;;;;5039271;28;20205;-83
2023/03/25 10:13:05;;;;;;;5.03;0.90;;;22.60;99.90;;;;;;5036140;28;20205;-82
2023/03/25 10:15:47;;;;;;;5.45;1.00;;;22.60;99.90;;;;;;5039206;28;20197;-82
2023/03/25 10:18:47;;;;;;;5.20;1.00;;;22.60;99.90;;;;;;5044142;28;20204;-80
2023/03/25 10:21:21;;;;;;;5.65;1.10;;;22.60;99.90;;;;;;5037168;28;20225;-77
2023/03/25 10:24:05;;;;;;;3.35;1.00;;;22.60;99.90;;;;;;5045625;28;20196;-82
2023/03/25 10:26:49;;;;;;;3.65;1.00;;;22.60;99.90;;;;;;5038895;28;20201;-80
2023/03/25 10:29:24;;;;;;;4.43;1.00;;;22.70;99.90;;;;;;5035543;28;20255;-80
2023/03/25 10:31:56;;;;;;;3.25;0.80;;;22.60;99.90;;;;;;5034998;28;20207;-83
2023/03/25 10:34:36;;;;;;;3.08;0.70;;;22.60;99.90;;;;;;5034656;28;20247;-81
2023/03/25 10:37:11;;;;;;;2.67;0.73;;;22.60;99.90;;;;;;5033291;28;20193;-81
2023/03/25 10:39:46;;;;;;;4.20;0.70;;;22.60;99.90;;;;;;5034855;28;20201;-80
2023/03/25 10:42:26;;;;;;;3.05;1.20;;;22.60;99.90;;;;;;5047824;28;20232;-81
2023/03/25 10:44:57;;;;;;;4.07;1.00;;;22.60;99.90;;;;;;5065267;28;20196;-79
2023/03/25 10:47:32;;;;;;;3.05;0.77;;;22.60;99.90;;;;;;5044934;28;20198;-80
2023/03/25 10:50:05;;;;;;;4.18;0.73;;;22.60;99.90;;;;;;5034746;28;20201;-80
2023/03/25 10:52:37;;;;;;;2.08;0.70;;;22.60;99.90;;;;;;5032109;28;20205;-80
2023/03/25 10:55:26;;;;;;;4.45;1.08;;;22.60;99.90;;;;;;5043294;28;20199;-81
2023/03/25 10:57:59;;;;;;;3.65;0.75;;;22.60;99.90;;;;;;5041675;28;20553;-79
2023/03/25 11:00:30;;;;;;;3.47;0.65;;;22.60;99.90;;;;;;5041572;28;20193;-81
2023/03/25 11:03:06;;;;;;;2.33;0.68;;;22.60;99.90;;;;;;5041898;28;20239;-82
2023/03/25 11:05:38;;;;;;;2.03;0.57;;;22.60;99.90;;;;;;5037026;28;20224;-80
2023/03/25 11:08:11;;;;;;;4.15;0.80;;;22.60;99.90;;;;;;5027968;28;20229;-79
2023/03/25 11:13:40;;;;;;;2.38;0.68;;;22.60;99.90;;;;;;5036405;28;20742;-80
2023/03/25 11:16:17;;;;;;;3.42;0.65;;;22.60;99.90;;;;;;5023938;28;20193;-81
2023/03/25 11:18:51;;;;;;;3.00;0.70;;;22.60;99.90;;;;;;5027358;28;20197;-80
2023/03/25 11:21:27;;;;;;;4.53;0.90;;;22.50;99.90;;;;;;5039645;28;20221;-79
2023/03/25 11:24:00;;;;;;;4.43;0.75;;;22.50;99.90;;;;;;5039119;28;20194;-82
2023/03/25 11:26:38;;;;;;;5.55;1.08;;;22.50;99.90;;;;;;5040695;28;20208;-82
2023/03/25 11:29:13;;;;;;;2.30;0.50;;;22.60;99.90;;;;;;5037076;28;20201;-80
2023/03/25 11:31:45;;;;;;;2.67;0.75;;;22.60;99.90;;;;;;5038014;28;20203;-79
2023/03/25 11:34:25;;;;;;;1.73;0.50;;;22.60;99.90;;;;;;5037662;28;20671;-79
2023/03/25 11:37:03;;;;;;;2.08;0.60;;;22.60;99.90;;;;;;5036660;28;20201;-83
2023/03/25 11:39:38;;;;;;;3.97;0.50;;;22.60;99.90;;;;;;5037516;28;20659;-79
2023/03/25 11:42:25;;;;;;;1.23;0.40;;;22.60;99.90;;;;;;5046787;28;20216;-81
2023/03/25 11:44:59;;;;;;;2.40;0.75;;;22.50;99.90;;;;;;5021167;28;20202;-81
2023/03/25 11:47:34;;;;;;;3.53;0.73;;;22.50;99.90;;;;;;5034830;28;20243;-80
2023/03/25 11:50:07;;;;;;;1.75;0.55;;;22.50;99.90;;;;;;5037851;28;20207;-81
2023/03/25 11:52:43;;;;;;;3.20;0.60;;;22.50;99.90;;;;;;5036361;28;20205;-80
2023/03/25 11:55:20;;;;;;;3.15;0.70;;;22.50;99.90;;;;;;5045871;28;20204;-80
2023/03/25 11:57:57;;;;;;;3.42;0.70;;;22.50;99.90;;;;;;5056704;28;20196;-79
2023/03/25 12:00:41;;;;;;;3.13;0.60;;;22.50;99.90;;;;;;5043439;28;20197;-80
2023/03/25 12:03:23;;;;;;;3.75;0.60;;;22.50;99.90;;;;;;5037919;28;20228;-79
2023/03/25 12:06:08;;;;;;;2.22;0.40;;;22.60;99.90;;;;;;5037958;28;20243;-79
2023/03/25 12:08:51;;;;;;;2.90;0.65;;;22.60;99.90;;;;;;5020252;28;20204;-80
2023/03/25 12:11:25;;;;;;;1.52;0.70;;;22.60;99.90;;;;;;5019506;28;20308;-80
2023/03/25 12:14:14;;;;;;;2.28;0.60;;;22.50;99.90;;;;;;5034226;28;20201;-80
2023/03/25 12:16:51;;;;;;;1.85;0.60;;;22.50;99.90;;;;;;5033471;28;20205;-80
2023/03/25 12:19:34;;;;;;;1.90;0.50;;;22.60;99.90;;;;;;5042100;28;20196;-80
2023/03/25 12:22:18;;;;;;;4.28;0.50;;;22.60;99.90;;;;;;5036871;28;20216;-80
2023/03/25 12:25:21;;;;;;;1.80;0.50;;;22.60;99.90;;;;;;5012883;28;20206;-80
2023/03/25 12:28:06;;;;;;;3.05;0.47;;;22.60;99.90;;;;;;5012822;28;20198;-81
2023/03/25 12:30:54;;;;;;;3.30;0.60;;;22.60;99.90;;;;;;5012972;28;20680;-79
2023/03/25 12:33:40;;;;;;;2.55;0.50;;;22.60;99.90;;;;;;5012676;28;20209;-79
2023/03/25 12:36:28;;;;;;;2.47;0.60;;;22.60;99.90;;;;;;5030304;28;20224;-80
2023/03/25 12:39:13;;;;;;;2.20;0.43;;;22.60;99.90;;;;;;5014999;28;20202;-80
2023/03/25 12:41:51;;;;;;;1.65;0.57;;;22.60;99.90;;;;;;5030034;28;20260;-80
2023/03/25 12:44:36;;;;;;;3.03;0.60;;;22.60;99.90;;;;;;5049362;28;20192;-80
2023/03/25 12:47:18;;;;;;;2.40;0.68;;;22.70;99.90;;;;;;5034456;28;20574;-80
2023/03/25 12:50:17;;;;;;;3.53;0.52;;;22.60;99.90;;;;;;5034591;28;20219;-79
2023/03/25 12:52:58;;;;;;;4.63;0.70;;;22.70;99.90;;;;;;5029828;28;20198;-79
2023/03/25 12:55:45;;;;;;;2.10;0.60;;;22.60;99.90;;;;;;5033190;28;20224;-79
2023/03/25 12:58:54;;;;;;;2.35;0.45;;;22.60;99.90;;;;;;5034479;28;20200;-80
2023/03/25 13:01:36;;;;;;;2.83;0.60;;;22.60;99.90;;;;;;5034070;28;20672;-80
2023/03/25 13:04:27;;;;;;;3.08;0.65;;;22.70;99.90;;;;;;5034801;28;20205;-80
2023/03/25 13:07:04;;;;;;;2.40;0.63;;;22.60;99.90;;;;;;5038175;28;20232;-80
2023/03/25 13:09:42;;;;;;;2.33;0.50;;;22.70;99.90;;;;;;5036309;28;20255;-79
2023/03/25 13:12:19;;;;;;;2.30;0.50;;;22.70;99.90;;;;;;5037493;28;20231;-80
2023/03/25 13:15:04;;;;;;;1.00;0.35;;;22.70;99.90;;;;;;5037224;28;20197;-80
2023/03/25 13:17:41;;;;;;;1.58;0.40;;;22.60;99.90;;;;;;5042076;28;20219;-80
2023/03/25 13:20:16;;;;;;;3.28;0.60;;;22.70;99.90;;;;;;5032165;28;20212;-80
2023/03/25 13:22:52;;;;;;;3.00;0.57;;;22.70;99.90;;;;;;5024427;28;20230;-81
2023/03/25 13:25:32;;;;;;;4.55;0.70;;;22.70;99.90;;;;;;5013739;28;20313;-80
2023/03/25 13:28:07;;;;;;;3.22;0.60;;;22.70;99.90;;;;;;5031402;28;20660;-79
2023/03/25 13:30:42;;;;;;;1.33;0.50;;;22.70;99.90;;;;;;5034541;28;20192;-80
2023/03/25 13:33:17;;;;;;;3.78;0.50;;;22.70;99.90;;;;;;5031730;28;20723;-80
2023/03/25 13:35:53;;;;;;;1.42;0.52;;;22.70;99.90;;;;;;5032735;28;20197;-80